Etusivu
METAR-TAF:

METAR-TAF

Lentoasemat :

Rota, Espanja

Leveyspiiri: 36-39N, Pituuspiiri: 006-21W, korkeus merenpinnasta: 26 m

Tämänhetkinen sää

Tämä raportti tehtiin 32 minuuttia sitten, kello 02.00 UTC
Tuuli 5 kn lounaasta
Lämpötila 20°C
Kosteus 83%
Ilmanpaine 1013 hPa
Näkyvyys: 4600 m

METAR: LERT 060200Z AUTO 23005KT 9999 4600E NCD 20/17 Q1013

Aika: 04:32 (02:32 UTC)

Sääennuste

Tämä raportti tehtiin 32 minuuttia sitten, kello 02.00 UTC
Ennuste voimassa 06. päivästä klo 03 UTC - 06. päivään klo 12 UTC
Tuuli 4 kn lännestä
Näkyvyys 10 km tai enemmän
ei pilviä alle 1500 m:ssä eikä cumulonimbus-pilviä

TAF: LERT 060200Z 0603/0612 28004KT CAVOK

Säähavainnot ja -ennusteet yli 4000 lentoasemalta (METAR- ja TAF-raportit).

Käytössä olevat sääasemat on merkitty karttaan keltaisilla ja punaisilla pisteillä.

Aseta hiiri pisteen päälle nähdäksesi sääaseman nimen.

Klikkaa sitten nähdäksesi säähavainnot ja -ennusteet.

Kartan vaihtaminen: klikkaa mustalla rastilla varustettuja vihreitä pisteitä, niin voit zoomata sisään; viivalla varustettua vihreää pistettä, niin voit zoomata ulos tai vihreitä nuolia, niin pääset viereisille kartoille.


METAR-TAF: